Time;durP1;ratioP1;P1;durP2;ratioP2;P2;SDS_P1;SDS_P2;PMS_P1;PMS_P2;Temp;Humidity;BMP_temperature;BMP_pressure;BME280_temperature;BME280_humidity;BME280_pressure;Samples;Min_cycle;Max_cycle;Signal;HPM_P1;HPM_P2
2021/03/05 00:00:20;;;;;;;28.27;22.07;;;7.00;99.90;;;;;;5131774;27;20578;-70
2021/03/05 00:02:47;;;;;;;27.00;21.53;;;6.90;99.90;;;;;;5130933;27;20618;-70
2021/03/05 00:05:14;;;;;;;29.60;22.10;;;6.80;99.90;;;;;;5130761;27;20974;-69
2021/03/05 00:07:41;;;;;;;26.93;21.03;;;6.70;99.90;;;;;;5131700;27;20455;-70
2021/03/05 00:10:10;;;;;;;30.67;21.70;;;6.60;99.90;;;;;;5120997;27;20535;-70
2021/03/05 00:12:37;;;;;;;26.03;19.10;;;6.60;99.90;;;;;;5130988;27;20864;-70
2021/03/05 00:15:04;;;;;;;25.80;20.40;;;6.50;99.90;;;;;;5123225;27;20456;-70
2021/03/05 00:17:31;;;;;;;27.47;19.67;;;6.50;99.90;;;;;;5111397;28;20483;-71
2021/03/05 00:19:57;;;;;;;28.63;20.70;;;6.40;99.90;;;;;;5111581;28;20437;-72
2021/03/05 00:22:25;;;;;;;26.20;20.20;;;6.40;99.90;;;;;;5112079;28;20451;-72
2021/03/05 00:24:51;;;;;;;28.07;19.60;;;6.30;99.90;;;;;;5111345;28;20461;-71
2021/03/05 00:27:18;;;;;;;30.90;20.90;;;6.30;99.90;;;;;;5112110;28;20483;-72
2021/03/05 00:29:44;;;;;;;30.30;21.77;;;6.20;99.90;;;;;;5112136;28;20437;-71
2021/03/05 00:32:11;;;;;;;31.43;22.87;;;6.10;99.90;;;;;;5112134;28;20480;-71
2021/03/05 00:34:37;;;;;;;33.43;24.40;;;6.10;99.90;;;;;;5111302;28;20595;-71
2021/03/05 00:37:03;;;;;;;35.20;25.63;;;6.00;99.90;;;;;;5111867;28;20568;-71
2021/03/05 00:39:30;;;;;;;39.43;25.83;;;6.00;99.90;;;;;;5111832;28;20441;-71
2021/03/05 00:41:57;;;;;;;35.07;25.23;;;5.90;99.90;;;;;;5111756;28;20517;-72
2021/03/05 00:44:23;;;;;;;37.53;26.00;;;5.90;99.90;;;;;;5111345;28;20465;-73
2021/03/05 00:46:49;;;;;;;38.07;26.13;;;5.90;99.90;;;;;;5112109;28;20831;-72
2021/03/05 00:49:16;;;;;;;32.50;23.57;;;5.80;99.90;;;;;;5112028;28;20453;-72
2021/03/05 00:51:42;;;;;;;37.23;25.10;;;5.70;99.90;;;;;;5111728;28;20437;-72
2021/03/05 00:54:09;;;;;;;32.50;23.03;;;5.70;99.90;;;;;;5110757;28;20568;-71
2021/03/05 00:56:37;;;;;;;30.50;22.43;;;5.60;99.90;;;;;;5111883;28;20441;-71
2021/03/05 00:59:03;;;;;;;36.83;25.53;;;5.50;99.90;;;;;;5111750;28;20893;-72
2021/03/05 01:01:29;;;;;;;38.93;24.70;;;5.50;99.90;;;;;;5111662;28;20494;-71
2021/03/05 01:03:56;;;;;;;31.93;21.37;;;5.40;99.90;;;;;;5110976;28;20518;-71
2021/03/05 01:06:22;;;;;;;35.43;21.73;;;5.30;99.90;;;;;;5111887;28;20458;-71
2021/03/05 01:08:48;;;;;;;28.87;20.17;;;5.20;99.90;;;;;;5111459;28;20473;-71
2021/03/05 01:11:15;;;;;;;34.73;24.10;;;5.10;99.90;;;;;;5111777;28;20445;-72
2021/03/05 01:13:43;;;;;;;36.07;22.23;;;5.10;99.90;;;;;;5110837;28;20476;-71
2021/03/05 01:16:09;;;;;;;36.30;23.80;;;5.10;99.90;;;;;;5111449;28;20446;-71
2021/03/05 01:18:36;;;;;;;31.63;21.23;;;5.00;99.90;;;;;;5111383;27;20481;-71
2021/03/05 01:21:03;;;;;;;34.40;22.43;;;5.00;99.90;;;;;;5111318;28;20518;-71
2021/03/05 01:23:30;;;;;;;31.20;21.00;;;4.90;99.90;;;;;;5110364;28;21053;-70
2021/03/05 01:25:56;;;;;;;31.60;21.27;;;4.90;99.90;;;;;;5111436;28;20444;-71
2021/03/05 01:28:23;;;;;;;32.53;22.63;;;4.90;99.90;;;;;;5111404;28;20437;-71
2021/03/05 01:30:50;;;;;;;28.60;20.20;;;4.90;99.90;;;;;;5109360;28;20459;-71
2021/03/05 01:33:16;;;;;;;31.27;21.40;;;4.90;99.90;;;;;;5111001;28;20948;-71
2021/03/05 01:35:43;;;;;;;32.43;23.47;;;4.90;99.90;;;;;;5109707;28;21067;-71
2021/03/05 01:38:10;;;;;;;31.97;22.47;;;4.90;99.90;;;;;;5110944;28;20469;-71
2021/03/05 01:40:39;;;;;;;38.00;23.70;;;4.90;99.90;;;;;;5111125;28;20456;-71
2021/03/05 01:43:07;;;;;;;33.17;20.80;;;4.90;99.90;;;;;;5111257;28;20452;-71
2021/03/05 01:45:33;;;;;;;38.30;24.50;;;4.90;99.90;;;;;;5110341;28;20461;-71
2021/03/05 01:48:05;;;;;;;36.33;24.30;;;4.90;99.90;;;;;;5111063;28;21056;-71
2021/03/05 01:50:35;;;;;;;34.27;24.10;;;4.90;99.90;;;;;;5111048;28;20441;-69
2021/03/05 01:53:04;;;;;;;36.23;25.23;;;4.90;99.90;;;;;;5111422;28;20545;-69
2021/03/05 01:55:30;;;;;;;37.00;27.00;;;4.90;99.90;;;;;;5110296;28;20465;-69
2021/03/05 01:58:30;;;;;;;41.87;28.17;;;4.90;99.90;;;;;;5110917;28;21010;-69
2021/03/05 02:01:00;;;;;;;44.77;29.30;;;4.90;99.90;;;;;;5110782;28;20449;-69
2021/03/05 02:03:30;;;;;;;41.90;26.90;;;4.90;99.90;;;;;;5110132;28;20822;-69
2021/03/05 02:05:57;;;;;;;43.40;28.70;;;4.90;99.90;;;;;;5110688;28;20436;-69
2021/03/05 02:08:24;;;;;;;43.07;27.50;;;4.90;99.90;;;;;;5110683;28;20448;-70
2021/03/05 02:10:50;;;;;;;40.43;27.60;;;4.90;99.90;;;;;;5110760;28;20445;-70
2021/03/05 02:13:17;;;;;;;39.63;26.23;;;4.90;99.90;;;;;;5110474;28;20437;-69
2021/03/05 02:15:43;;;;;;;36.53;24.43;;;4.90;99.90;;;;;;5109767;28;20521;-69
2021/03/05 02:18:19;;;;;;;38.60;25.83;;;4.80;99.90;;;;;;5110404;28;21002;-69
2021/03/05 02:21:11;;;;;;;41.90;25.70;;;4.80;99.90;;;;;;5108905;28;20464;-69
2021/03/05 02:23:50;;;;;;;35.67;24.10;;;4.80;99.90;;;;;;5113484;28;20445;-69
2021/03/05 02:26:53;;;;;;;40.07;25.67;;;4.70;99.90;;;;;;5113729;28;20796;-69
2021/03/05 02:30:01;;;;;;;39.00;25.63;;;4.80;99.90;;;;;;5114556;28;20445;-69
2021/03/05 02:32:35;;;;;;;39.60;24.00;;;4.80;99.90;;;;;;5114463;28;20445;-70
2021/03/05 02:35:03;;;;;;;38.93;25.27;;;4.80;99.90;;;;;;5113692;28;20452;-69
2021/03/05 02:37:32;;;;;;;39.37;25.10;;;4.80;99.90;;;;;;5114051;28;20855;-69
2021/03/05 02:40:05;;;;;;;32.30;22.43;;;4.80;99.90;;;;;;5114253;28;20449;-69
2021/03/05 02:42:37;;;;;;;32.10;22.93;;;4.70;99.90;;;;;;5113998;28;20449;-69
2021/03/05 02:45:08;;;;;;;30.93;20.47;;;4.70;99.90;;;;;;5113446;28;20552;-69
2021/03/05 02:47:36;;;;;;;38.17;21.50;;;4.80;99.90;;;;;;5114140;28;20437;-69
2021/03/05 02:50:05;;;;;;;33.53;21.33;;;4.80;99.90;;;;;;5113898;27;20524;-69
2021/03/05 02:52:34;;;;;;;29.80;19.70;;;4.70;99.90;;;;;;5113903;28;20441;-69
2021/03/05 02:55:04;;;;;;;27.30;19.80;;;4.60;99.90;;;;;;5113049;28;20465;-69
2021/03/05 02:57:33;;;;;;;30.50;19.60;;;4.70;99.90;;;;;;5113772;28;20563;-69
2021/03/05 03:00:00;;;;;;;27.20;20.23;;;4.70;99.90;;;;;;5113977;28;20443;-69
2021/03/05 03:02:28;;;;;;;27.10;18.60;;;4.70;99.90;;;;;;5113700;28;20536;-69
2021/03/05 03:04:57;;;;;;;28.87;18.40;;;4.70;99.90;;;;;;5113018;28;20461;-69
2021/03/05 03:07:25;;;;;;;26.60;18.20;;;4.70;99.90;;;;;;5113249;28;20448;-69
2021/03/05 03:09:52;;;;;;;33.47;20.97;;;4.70;99.90;;;;;;5113516;28;20448;-69
2021/03/05 03:12:18;;;;;;;28.93;20.50;;;4.70;99.90;;;;;;5113666;28;20463;-69
2021/03/05 03:14:47;;;;;;;30.30;21.13;;;4.70;99.90;;;;;;5112827;28;20905;-69
2021/03/05 03:17:14;;;;;;;32.23;20.97;;;4.70;99.90;;;;;;5113328;28;20477;-70
2021/03/05 03:19:45;;;;;;;27.50;18.50;;;4.70;99.90;;;;;;5112453;28;20463;-69
2021/03/05 03:22:13;;;;;;;31.37;21.50;;;4.60;99.90;;;;;;5112583;27;20468;-69
2021/03/05 03:24:40;;;;;;;32.07;22.83;;;4.70;99.90;;;;;;5112771;28;20465;-69
2021/03/05 03:27:06;;;;;;;32.27;19.93;;;4.60;99.90;;;;;;5107275;28;21319;-69
2021/03/05 03:29:32;;;;;;;29.53;20.83;;;4.60;99.90;;;;;;5112839;28;20437;-69
2021/03/05 03:31:59;;;;;;;33.13;23.10;;;4.60;99.90;;;;;;5112986;27;21297;-69
2021/03/05 03:34:26;;;;;;;33.13;20.90;;;4.60;99.90;;;;;;5112201;28;20477;-69
2021/03/05 03:36:55;;;;;;;31.80;22.00;;;4.60;99.90;;;;;;5112819;27;20979;-69
2021/03/05 03:39:24;;;;;;;28.63;20.13;;;4.60;99.90;;;;;;5113127;28;20452;-69
2021/03/05 03:41:51;;;;;;;32.23;22.10;;;4.60;99.90;;;;;;5112489;28;20461;-69
2021/03/05 03:44:17;;;;;;;28.00;19.80;;;4.60;99.90;;;;;;5111757;28;20463;-69
2021/03/05 03:46:47;;;;;;;30.47;19.70;;;4.60;99.90;;;;;;5113071;28;20448;-69
2021/03/05 03:49:17;;;;;;;30.87;19.63;;;4.60;99.90;;;;;;5112584;28;20506;-69
2021/03/05 03:51:49;;;;;;;31.20;20.40;;;4.60;99.90;;;;;;5113141;28;20446;-69
2021/03/05 03:54:16;;;;;;;30.23;19.87;;;4.60;99.90;;;;;;5112039;28;20488;-69
2021/03/05 03:56:46;;;;;;;24.30;17.87;;;4.60;99.90;;;;;;5112780;28;20441;-70
2021/03/05 03:59:15;;;;;;;30.43;17.57;;;4.60;99.90;;;;;;5112586;28;20499;-69
2021/03/05 04:01:44;;;;;;;24.80;19.10;;;4.50;99.90;;;;;;5112732;28;20437;-69
2021/03/05 04:04:12;;;;;;;24.77;18.17;;;4.50;99.90;;;;;;5112114;28;20473;-70
2021/03/05 04:06:40;;;;;;;26.70;18.10;;;4.50;99.90;;;;;;5112646;28;20449;-70
2021/03/05 04:09:10;;;;;;;24.47;16.30;;;4.50;99.90;;;;;;5112416;28;20446;-69
2021/03/05 04:11:37;;;;;;;26.47;19.40;;;4.50;99.90;;;;;;5112421;28;20445;-70
2021/03/05 04:14:04;;;;;;;25.73;17.47;;;4.50;99.90;;;;;;5111604;28;20469;-69
2021/03/05 04:16:31;;;;;;;27.33;18.17;;;4.40;99.90;;;;;;5112181;28;20501;-69
2021/03/05 04:18:57;;;;;;;25.80;17.90;;;4.40;99.90;;;;;;5112343;27;20915;-70
2021/03/05 04:21:28;;;;;;;21.10;16.20;;;4.40;99.90;;;;;;5111537;27;20492;-69
2021/03/05 04:23:54;;;;;;;26.00;17.60;;;4.40;99.90;;;;;;5111084;28;20496;-70
2021/03/05 04:26:21;;;;;;;20.27;15.90;;;4.40;99.90;;;;;;5112142;28;20552;-69
2021/03/05 04:28:48;;;;;;;21.27;16.00;;;4.40;99.90;;;;;;5112056;28;21047;-69
2021/03/05 04:31:15;;;;;;;22.47;17.10;;;4.40;99.90;;;;;;5112014;27;20442;-69
2021/03/05 04:33:42;;;;;;;19.00;14.90;;;4.40;99.90;;;;;;5111433;28;20437;-69
2021/03/05 04:36:08;;;;;;;22.13;16.13;;;4.30;99.90;;;;;;5112133;28;20445;-70
2021/03/05 04:38:34;;;;;;;24.40;15.03;;;4.30;99.90;;;;;;5111912;28;20488;-70
2021/03/05 04:41:00;;;;;;;18.93;14.50;;;4.30;99.90;;;;;;5111929;28;20800;-69
2021/03/05 04:43:27;;;;;;;18.40;14.00;;;4.30;99.90;;;;;;5110744;28;20451;-69
2021/03/05 04:45:54;;;;;;;20.33;14.37;;;4.30;99.90;;;;;;5111165;28;20452;-69
2021/03/05 04:48:21;;;;;;;20.47;14.50;;;4.30;99.90;;;;;;5111631;28;20441;-70
2021/03/05 04:50:47;;;;;;;19.77;13.97;;;4.30;99.90;;;;;;5111858;28;20441;-69
2021/03/05 04:53:13;;;;;;;21.50;15.23;;;4.30;99.90;;;;;;5111694;28;20452;-69
2021/03/05 04:55:40;;;;;;;19.40;13.73;;;4.30;99.90;;;;;;5110995;28;20839;-69
2021/03/05 04:58:07;;;;;;;17.67;12.97;;;4.30;99.90;;;;;;5111549;28;20479;-69
2021/03/05 05:00:33;;;;;;;21.50;14.33;;;4.30;99.90;;;;;;5111780;28;20455;-69
2021/03/05 05:02:59;;;;;;;18.80;13.00;;;4.30;99.90;;;;;;5111910;28;20472;-69
2021/03/05 05:05:26;;;;;;;20.97;12.97;;;4.30;99.90;;;;;;5110888;28;20453;-69
2021/03/05 05:07:55;;;;;;;19.10;14.00;;;4.30;99.90;;;;;;5111780;28;20446;-70
2021/03/05 05:10:21;;;;;;;18.90;13.93;;;4.30;99.90;;;;;;5111622;28;20442;-69
2021/03/05 05:12:48;;;;;;;18.20;14.10;;;4.30;99.90;;;;;;5111576;28;20444;-70
2021/03/05 05:15:15;;;;;;;20.17;14.63;;;4.20;99.90;;;;;;5110895;28;20461;-69
2021/03/05 05:17:41;;;;;;;20.67;13.67;;;4.20;99.90;;;;;;5111394;28;20473;-70
2021/03/05 05:20:09;;;;;;;17.13;12.53;;;4.20;99.90;;;;;;5111587;28;20441;-69
2021/03/05 05:22:37;;;;;;;17.40;12.83;;;4.20;99.90;;;;;;5111123;28;20464;-70
2021/03/05 05:25:05;;;;;;;18.90;14.10;;;4.20;99.90;;;;;;5110498;28;21048;-70
2021/03/05 05:27:31;;;;;;;20.03;13.10;;;4.20;99.90;;;;;;5111131;28;20441;-70
2021/03/05 05:29:57;;;;;;;18.63;13.50;;;4.20;99.90;;;;;;5111121;28;20876;-73
2021/03/05 05:32:24;;;;;;;16.87;11.40;;;4.20;99.90;;;;;;5110840;28;20540;-69
2021/03/05 05:34:50;;;;;;;18.10;11.43;;;4.20;99.90;;;;;;5110106;28;20514;-69
2021/03/05 05:37:16;;;;;;;16.23;11.17;;;4.20;99.90;;;;;;5110736;28;21054;-69
2021/03/05 05:39:44;;;;;;;16.53;11.50;;;4.20;99.90;;;;;;5110179;28;20528;-69
2021/03/05 05:42:10;;;;;;;16.23;12.17;;;4.20;99.90;;;;;;5110815;28;20450;-69
2021/03/05 05:44:37;;;;;;;17.13;12.20;;;4.20;99.90;;;;;;5110771;28;20469;-70
2021/03/05 05:47:04;;;;;;;18.53;12.63;;;4.20;99.90;;;;;;5111306;28;20440;-69
2021/03/05 05:49:32;;;;;;;19.13;11.63;;;4.20;99.90;;;;;;5111197;28;20443;-69
2021/03/05 05:52:00;;;;;;;15.93;11.40;;;4.20;99.90;;;;;;5110934;28;20444;-68
2021/03/05 05:54:28;;;;;;;16.37;11.50;;;4.20;99.90;;;;;;5110372;28;20487;-68
2021/03/05 05:56:56;;;;;;;13.77;10.37;;;4.20;99.90;;;;;;5107003;28;20448;-69
2021/03/05 05:59:25;;;;;;;18.13;12.30;;;4.20;99.90;;;;;;5113316;28;20437;-68
2021/03/05 06:01:52;;;;;;;16.93;12.00;;;4.20;99.90;;;;;;5114852;28;20490;-69
2021/03/05 06:04:18;;;;;;;15.20;9.27;;;4.20;99.90;;;;;;5114207;27;20560;-71
2021/03/05 06:06:46;;;;;;;19.00;12.30;;;4.20;99.90;;;;;;5114804;28;20441;-69
2021/03/05 06:09:12;;;;;;;17.87;12.10;;;4.20;99.90;;;;;;5114703;28;20441;-68
2021/03/05 06:11:40;;;;;;;18.43;11.80;;;4.20;99.90;;;;;;5114828;28;20837;-72
2021/03/05 06:14:08;;;;;;;20.50;12.67;;;4.20;99.90;;;;;;5113765;28;20489;-71
2021/03/05 06:16:36;;;;;;;17.33;11.03;;;4.20;99.90;;;;;;5114755;28;20497;-70
2021/03/05 06:19:17;;;;;;;17.67;11.13;;;4.10;99.90;;;;;;5111433;28;20568;-70
2021/03/05 06:21:44;;;;;;;16.83;12.20;;;4.20;99.90;;;;;;5098960;28;20445;-71
2021/03/05 06:24:11;;;;;;;18.73;12.50;;;4.20;99.90;;;;;;5097450;28;20478;-73
2021/03/05 06:26:51;;;;;;;15.53;11.30;;;4.20;99.90;;;;;;5098550;28;20451;-70
2021/03/05 06:29:24;;;;;;;17.83;11.80;;;4.10;99.90;;;;;;5092718;28;20445;-68
2021/03/05 06:31:59;;;;;;;19.20;10.83;;;4.10;99.90;;;;;;5092562;28;20503;-70
2021/03/05 06:34:27;;;;;;;20.63;11.23;;;4.20;99.90;;;;;;5092200;28;20458;-72
2021/03/05 06:37:03;;;;;;;19.17;11.37;;;4.10;99.90;;;;;;5092822;28;20438;-69
2021/03/05 06:39:31;;;;;;;16.40;9.97;;;4.10;99.90;;;;;;5092921;28;20521;-73
2021/03/05 06:42:02;;;;;;;19.70;12.67;;;4.10;99.90;;;;;;5100445;28;20490;-71
2021/03/05 06:44:30;;;;;;;20.20;11.83;;;4.10;99.90;;;;;;5098515;28;20504;-70
2021/03/05 06:46:57;;;;;;;22.90;12.87;;;4.10;99.90;;;;;;5097306;28;20445;-71
2021/03/05 06:49:26;;;;;;;18.90;11.80;;;4.10;99.90;;;;;;5110383;27;20962;-71
2021/03/05 06:51:55;;;;;;;20.63;13.83;;;4.10;99.90;;;;;;5112247;28;20441;-71
2021/03/05 06:54:22;;;;;;;19.20;12.27;;;4.10;99.90;;;;;;5110409;28;20504;-71
2021/03/05 06:56:50;;;;;;;25.63;14.27;;;4.10;99.90;;;;;;5111391;28;20532;-71
2021/03/05 06:59:18;;;;;;;18.03;11.97;;;4.00;99.90;;;;;;5111558;28;20576;-72
2021/03/05 07:01:48;;;;;;;21.73;13.43;;;4.00;99.90;;;;;;5111924;28;20454;-74
2021/03/05 07:04:16;;;;;;;20.17;12.30;;;4.00;99.90;;;;;;5111014;27;20468;-72
2021/03/05 07:06:42;;;;;;;21.50;12.60;;;4.00;99.90;;;;;;5106378;28;20521;-72
2021/03/05 07:09:10;;;;;;;23.47;13.43;;;4.00;99.90;;;;;;5106346;28;20444;-73
2021/03/05 07:11:43;;;;;;;23.43;13.10;;;4.00;99.90;;;;;;5110814;28;20958;-72
2021/03/05 07:14:12;;;;;;;19.17;12.90;;;4.00;99.90;;;;;;5109953;28;20465;-72
2021/03/05 07:16:44;;;;;;;25.00;14.13;;;4.00;99.90;;;;;;5111294;28;20544;-73
2021/03/05 07:19:13;;;;;;;18.60;11.63;;;4.00;99.90;;;;;;5111005;28;20479;-73
2021/03/05 07:21:42;;;;;;;21.50;13.77;;;4.00;99.90;;;;;;5110491;28;20453;-71
2021/03/05 07:24:10;;;;;;;20.40;12.60;;;4.00;99.90;;;;;;5101967;28;20966;-74
2021/03/05 07:26:43;;;;;;;25.90;13.40;;;4.00;99.90;;;;;;5103772;28;20523;-71
2021/03/05 07:29:18;;;;;;;22.03;12.20;;;4.00;99.90;;;;;;5101678;28;21177;-72
2021/03/05 07:31:45;;;;;;;20.10;12.10;;;4.10;99.90;;;;;;5104456;28;20527;-72
2021/03/05 07:34:18;;;;;;;22.43;12.30;;;4.10;99.90;;;;;;5112692;28;20535;-73
2021/03/05 07:36:49;;;;;;;23.23;12.87;;;4.10;99.90;;;;;;5113543;28;20438;-72
2021/03/05 07:39:22;;;;;;;23.30;13.57;;;4.10;99.90;;;;;;5116957;28;20487;-72
2021/03/05 07:41:51;;;;;;;21.50;13.67;;;4.10;99.90;;;;;;5112016;28;20441;-72
2021/03/05 07:44:18;;;;;;;20.13;13.63;;;4.10;99.90;;;;;;5111969;28;20951;-71
2021/03/05 07:46:45;;;;;;;18.93;12.10;;;4.10;99.90;;;;;;5116613;28;20513;-72
2021/03/05 07:49:13;;;;;;;21.93;12.70;;;4.20;99.90;;;;;;5110786;28;20543;-71
2021/03/05 07:51:41;;;;;;;21.00;13.13;;;4.20;99.90;;;;;;5110861;28;20434;-72
2021/03/05 07:54:08;;;;;;;20.93;13.40;;;4.30;99.90;;;;;;5110514;28;20467;-71
2021/03/05 07:56:45;;;;;;;23.23;13.70;;;4.30;99.90;;;;;;5111068;28;20560;-72
2021/03/05 07:59:11;;;;;;;19.40;12.83;;;4.30;99.90;;;;;;5110273;28;20502;-72
2021/03/05 08:01:59;;;;;;;18.70;11.70;;;4.30;99.90;;;;;;5110849;28;20527;-71
2021/03/05 08:05:03;;;;;;;25.20;13.10;;;4.40;99.90;;;;;;5109932;28;20468;-72
2021/03/05 08:07:32;;;;;;;19.50;11.70;;;4.40;99.90;;;;;;5109881;28;20449;-72
2021/03/05 08:09:58;;;;;;;18.83;12.40;;;4.50;99.90;;;;;;5110822;28;20477;-72
2021/03/05 08:12:41;;;;;;;24.73;15.10;;;4.50;99.90;;;;;;5110996;28;20430;-70
2021/03/05 08:15:24;;;;;;;18.50;12.27;;;4.50;99.90;;;;;;5111054;28;20840;-72
2021/03/05 08:17:53;;;;;;;19.87;13.10;;;4.60;99.90;;;;;;5111090;28;20580;-72
2021/03/05 08:20:53;;;;;;;19.97;12.57;;;4.60;99.90;;;;;;5110096;28;20445;-71
2021/03/05 08:23:20;;;;;;;18.37;12.00;;;4.60;99.90;;;;;;5099911;28;20526;-71
2021/03/05 08:25:54;;;;;;;17.40;11.67;;;4.50;99.90;;;;;;5110827;28;20510;-72
2021/03/05 08:28:38;;;;;;;18.07;12.00;;;4.60;99.90;;;;;;5110538;28;20436;-72
2021/03/05 08:31:36;;;;;;;18.00;11.20;;;4.60;99.90;;;;;;5110672;28;21045;-72
2021/03/05 08:34:28;;;;;;;22.50;13.73;;;4.70;99.90;;;;;;5110399;28;20508;-72
2021/03/05 08:36:55;;;;;;;21.17;12.00;;;4.70;99.90;;;;;;5110321;28;20465;-72
2021/03/05 08:39:31;;;;;;;18.30;12.50;;;4.80;99.90;;;;;;5110257;28;20481;-72
2021/03/05 08:42:27;;;;;;;22.27;12.07;;;4.80;99.90;;;;;;5109431;28;21106;-73
2021/03/05 08:45:16;;;;;;;17.03;12.40;;;4.80;99.90;;;;;;5109210;28;20492;-72
2021/03/05 08:47:44;;;;;;;18.47;11.07;;;4.80;99.90;;;;;;5109853;28;20529;-72
2021/03/05 08:50:12;;;;;;;18.93;11.63;;;4.80;99.90;;;;;;5109288;28;20536;-73
2021/03/05 08:52:42;;;;;;;20.00;12.23;;;4.80;99.90;;;;;;5109191;28;20445;-72
2021/03/05 08:55:11;;;;;;;16.63;10.90;;;4.80;99.90;;;;;;5108854;28;20546;-72
2021/03/05 08:57:45;;;;;;;17.50;11.40;;;4.80;99.90;;;;;;5109452;28;20563;-73
2021/03/05 09:00:15;;;;;;;23.10;11.80;;;4.80;99.90;;;;;;5109253;28;20471;-72
2021/03/05 09:02:43;;;;;;;18.10;11.10;;;4.90;99.90;;;;;;5109455;28;20477;-72
2021/03/05 09:05:12;;;;;;;19.30;11.20;;;4.90;99.90;;;;;;5109085;28;20548;-72
2021/03/05 09:07:49;;;;;;;18.13;12.17;;;4.90;99.90;;;;;;5109244;28;20453;-72
2021/03/05 09:10:17;;;;;;;22.13;11.87;;;4.90;99.90;;;;;;5108658;28;20426;-72
2021/03/05 09:12:57;;;;;;;17.80;10.40;;;4.90;99.90;;;;;;5108723;28;21230;-72
2021/03/05 09:15:28;;;;;;;15.07;10.90;;;4.90;99.90;;;;;;5108697;28;20497;-72
2021/03/05 09:17:55;;;;;;;16.57;11.47;;;4.90;99.90;;;;;;5109427;28;20477;-71
2021/03/05 09:20:22;;;;;;;20.83;11.20;;;4.90;99.90;;;;;;5108678;28;20429;-72
2021/03/05 09:22:48;;;;;;;16.23;10.90;;;4.90;99.90;;;;;;5108677;28;20517;-71
2021/03/05 09:25:16;;;;;;;18.57;12.30;;;4.90;99.90;;;;;;5100572;28;20995;-72
2021/03/05 09:27:44;;;;;;;16.30;10.73;;;4.90;99.90;;;;;;5097060;28;20819;-71
2021/03/05 09:30:16;;;;;;;20.00;11.67;;;5.00;99.90;;;;;;5103928;28;20537;-72
2021/03/05 09:32:49;;;;;;;14.10;10.00;;;5.00;99.90;;;;;;5096104;28;20752;-71
2021/03/05 09:35:16;;;;;;;15.23;10.60;;;5.00;99.90;;;;;;5106851;28;20560;-72
2021/03/05 09:37:43;;;;;;;15.87;10.97;;;5.10;99.90;;;;;;5114038;28;20473;-70
2021/03/05 09:40:10;;;;;;;24.57;12.13;;;5.20;99.90;;;;;;5106296;27;20445;-69
2021/03/05 09:42:51;;;;;;;20.30;10.93;;;5.20;99.90;;;;;;5107166;28;20448;-69
2021/03/05 09:45:38;;;;;;;17.27;11.07;;;5.30;99.90;;;;;;5105883;28;20557;-72
2021/03/05 09:48:06;;;;;;;16.90;10.93;;;5.40;99.90;;;;;;5115509;27;20780;-72
2021/03/05 09:50:34;;;;;;;20.00;12.83;;;5.50;99.90;;;;;;5109724;27;20460;-72
2021/03/05 09:53:22;;;;;;;15.20;10.40;;;5.60;99.90;;;;;;5111049;27;20528;-73
2021/03/05 09:55:53;;;;;;;14.27;10.30;;;5.70;99.90;;;;;;5109004;28;20536;-73
2021/03/05 09:58:20;;;;;;;19.00;11.30;;;5.80;99.90;;;;;;5115931;27;20472;-71
2021/03/05 10:00:47;;;;;;;14.83;9.00;;;5.80;99.90;;;;;;5115317;27;20451;-71
2021/03/05 10:03:15;;;;;;;15.87;10.27;;;5.80;99.90;;;;;;5116159;27;20445;-72
2021/03/05 10:05:43;;;;;;;16.07;10.53;;;5.80;99.90;;;;;;5114873;27;20465;-72
2021/03/05 10:08:11;;;;;;;15.10;9.87;;;5.80;99.90;;;;;;5115659;27;20623;-72
2021/03/05 10:11:00;;;;;;;15.03;9.90;;;5.80;99.90;;;;;;5115235;27;20524;-72
2021/03/05 10:13:45;;;;;;;15.47;9.90;;;5.80;99.90;;;;;;5114791;27;20437;-71
2021/03/05 10:16:17;;;;;;;15.37;10.00;;;5.80;99.90;;;;;;5115685;27;20523;-71
2021/03/05 10:18:44;;;;;;;18.40;10.43;;;6.00;99.90;;;;;;5117258;27;21024;-72
2021/03/05 10:21:12;;;;;;;17.80;9.87;;;6.10;99.90;;;;;;5116053;27;20445;-72
2021/03/05 10:23:39;;;;;;;16.97;10.60;;;6.10;99.90;;;;;;5115068;27;20543;-73
2021/03/05 10:26:13;;;;;;;17.07;10.53;;;6.20;99.90;;;;;;5115913;27;20455;-73
2021/03/05 10:28:40;;;;;;;19.27;11.40;;;6.20;99.90;;;;;;5107889;28;20528;-71
2021/03/05 10:31:07;;;;;;;19.03;10.13;;;6.20;99.90;;;;;;5111556;27;20445;-71
2021/03/05 10:33:38;;;;;;;18.23;11.27;;;6.10;99.90;;;;;;5105549;27;20540;-71
2021/03/05 10:36:06;;;;;;;15.37;10.53;;;6.10;99.90;;;;;;5095737;28;21193;-71
2021/03/05 10:38:33;;;;;;;20.17;12.33;;;6.10;99.90;;;;;;5095560;28;20506;-71
2021/03/05 10:40:59;;;;;;;15.03;10.50;;;6.20;99.90;;;;;;5102299;28;20488;-70
2021/03/05 10:43:26;;;;;;;16.63;10.77;;;6.20;99.90;;;;;;5100434;28;20504;-71
2021/03/05 10:45:52;;;;;;;19.97;11.50;;;6.00;99.90;;;;;;5114448;28;21191;-71
2021/03/05 10:48:19;;;;;;;15.27;11.10;;;6.00;99.90;;;;;;5114654;28;21024;-72
2021/03/05 10:50:46;;;;;;;15.20;11.03;;;5.90;99.90;;;;;;5113788;28;20480;-72
2021/03/05 10:53:12;;;;;;;17.50;11.63;;;5.90;99.90;;;;;;5102092;28;20957;-72
2021/03/05 10:55:38;;;;;;;19.30;12.20;;;5.90;99.90;;;;;;5110333;28;20545;-71
2021/03/05 10:58:05;;;;;;;17.77;11.20;;;5.70;99.90;;;;;;5116048;28;20518;-71
2021/03/05 11:00:31;;;;;;;14.90;10.57;;;5.60;99.90;;;;;;5113218;28;20459;-71
2021/03/05 11:02:58;;;;;;;18.47;11.63;;;5.40;99.90;;;;;;5112063;28;20540;-71
2021/03/05 11:05:25;;;;;;;18.67;11.10;;;5.40;99.90;;;;;;5111049;28;20461;-72
2021/03/05 11:07:53;;;;;;;18.00;11.77;;;5.50;99.90;;;;;;5111616;28;20438;-72
2021/03/05 11:10:20;;;;;;;18.10;11.77;;;5.60;99.90;;;;;;5112681;28;20502;-71
2021/03/05 11:12:47;;;;;;;18.43;11.00;;;5.70;99.90;;;;;;5112077;28;20447;-71
2021/03/05 11:15:15;;;;;;;16.33;11.77;;;5.80;99.90;;;;;;5111431;28;20841;-71
2021/03/05 11:17:42;;;;;;;16.07;10.60;;;5.80;99.90;;;;;;5112130;28;20437;-72
2021/03/05 11:20:09;;;;;;;15.03;10.80;;;5.90;99.90;;;;;;5112568;28;20475;-72
2021/03/05 11:22:37;;;;;;;16.70;10.50;;;6.00;99.90;;;;;;5111879;28;20464;-72
2021/03/05 11:25:04;;;;;;;14.90;10.70;;;6.10;99.90;;;;;;5111463;28;20544;-72
2021/03/05 11:27:32;;;;;;;19.10;11.50;;;6.10;99.90;;;;;;5112436;28;20425;-73
2021/03/05 11:29:58;;;;;;;17.83;11.93;;;6.20;99.90;;;;;;5112328;28;20540;-72
2021/03/05 11:32:25;;;;;;;16.80;12.03;;;6.20;99.90;;;;;;5111961;28;20460;-71
2021/03/05 11:34:51;;;;;;;17.37;11.50;;;6.30;99.90;;;;;;5111960;28;20492;-72
2021/03/05 11:37:18;;;;;;;17.63;11.83;;;6.40;99.90;;;;;;5111897;28;20449;-71
2021/03/05 11:39:45;;;;;;;19.60;10.70;;;6.40;99.90;;;;;;5111491;27;20508;-72
2021/03/05 11:42:11;;;;;;;16.40;11.00;;;6.40;99.90;;;;;;5111565;28;20448;-71
2021/03/05 11:44:38;;;;;;;18.30;11.13;;;6.50;99.90;;;;;;5111408;28;20535;-72
2021/03/05 11:47:04;;;;;;;21.03;10.80;;;6.60;99.90;;;;;;5112106;28;20441;-70
2021/03/05 11:49:31;;;;;;;18.40;10.87;;;6.70;99.90;;;;;;5111743;28;20481;-71
2021/03/05 11:51:57;;;;;;;16.97;11.10;;;6.70;99.90;;;;;;5111675;28;20540;-71
2021/03/05 11:54:23;;;;;;;14.00;10.30;;;6.60;99.90;;;;;;5109550;28;20477;-71
2021/03/05 11:56:51;;;;;;;15.50;10.27;;;6.60;99.90;;;;;;5111990;28;20447;-71
2021/03/05 11:59:17;;;;;;;18.47;11.30;;;6.60;99.90;;;;;;5111926;28;20470;-71
2021/03/05 12:01:43;;;;;;;17.00;10.73;;;6.60;99.90;;;;;;5111219;27;20444;-71
2021/03/05 12:04:10;;;;;;;17.77;11.20;;;6.60;99.90;;;;;;5111175;28;20541;-71
2021/03/05 12:06:36;;;;;;;17.77;11.80;;;6.50;99.90;;;;;;5111485;28;20477;-71
2021/03/05 12:09:04;;;;;;;17.53;11.57;;;6.50;99.90;;;;;;5111312;28;20517;-71
2021/03/05 12:11:30;;;;;;;14.93;10.33;;;6.50;99.90;;;;;;5111366;28;20536;-71
2021/03/05 12:13:58;;;;;;;16.70;11.47;;;6.50;99.90;;;;;;5107344;28;20549;-72
2021/03/05 12:16:24;;;;;;;15.63;12.10;;;6.60;99.90;;;;;;5105912;28;20449;-71
2021/03/05 12:18:50;;;;;;;15.70;10.90;;;6.60;99.90;;;;;;5112547;27;20483;-72
2021/03/05 12:21:17;;;;;;;15.60;10.50;;;6.60;99.90;;;;;;5094292;27;20454;-71
2021/03/05 12:23:43;;;;;;;17.97;10.87;;;6.70;99.90;;;;;;5096805;27;20461;-72
2021/03/05 12:26:10;;;;;;;15.13;10.33;;;6.70;99.90;;;;;;5098428;27;20473;-72
2021/03/05 12:28:36;;;;;;;15.30;11.90;;;6.70;99.90;;;;;;5112820;28;20441;-71
2021/03/05 12:31:04;;;;;;;14.87;9.90;;;6.80;99.90;;;;;;5105119;27;20655;-71
2021/03/05 12:33:30;;;;;;;16.97;11.10;;;6.80;99.90;;;;;;5103567;27;20450;-71
2021/03/05 12:35:56;;;;;;;14.77;10.93;;;6.80;99.90;;;;;;5104300;28;20446;-70
2021/03/05 12:38:23;;;;;;;16.43;11.43;;;6.80;99.90;;;;;;5100490;28;20560;-71
2021/03/05 12:40:49;;;;;;;16.80;10.93;;;6.90;99.90;;;;;;5098068;28;20444;-71
2021/03/05 12:43:16;;;;;;;14.60;9.93;;;7.00;99.90;;;;;;5108991;27;20533;-71
2021/03/05 12:45:45;;;;;;;15.03;10.70;;;7.10;99.90;;;;;;5107973;28;20468;-71
2021/03/05 12:48:13;;;;;;;14.80;8.97;;;7.20;99.90;;;;;;5107630;28;20548;-71